createdAt,value
2023-01-20T00:00:15.555Z,101719.03
2023-01-20T00:02:53.197Z,101742.84
2023-01-20T00:05:21.205Z,101740.38
2023-01-20T00:07:49.176Z,101752.97
2023-01-20T00:10:18.878Z,101747.19
2023-01-20T00:12:46.896Z,101750.81
2023-01-20T00:15:15.508Z,101756.16
2023-01-20T00:17:43.656Z,101759.78
2023-01-20T00:20:13.790Z,101761.56
2023-01-20T00:22:42.437Z,101752.00
2023-01-20T00:25:11.092Z,101740.28
2023-01-20T00:27:40.598Z,101764.44
2023-01-20T00:30:10.987Z,101766.34
2023-01-20T00:32:39.420Z,101767.28
2023-01-20T00:35:08.789Z,101768.97
2023-01-20T00:37:36.771Z,101768.19
2023-01-20T00:40:05.163Z,101765.56
2023-01-20T00:42:33.266Z,101772.53
2023-01-20T00:45:03.087Z,101777.78
2023-01-20T00:47:35.663Z,101757.41
2023-01-20T00:50:03.859Z,101772.69
2023-01-20T00:52:35.651Z,101747.53
2023-01-20T00:55:03.723Z,101784.06
2023-01-20T00:57:31.644Z,101788.44
2023-01-20T01:00:02.259Z,101788.44
2023-01-20T01:02:31.795Z,101793.69
2023-01-20T01:05:00.999Z,101792.13
2023-01-20T01:07:31.675Z,101792.31
2023-01-20T01:09:59.667Z,101784.09
2023-01-20T01:12:27.653Z,101806.97
2023-01-20T01:14:55.870Z,101796.59
2023-01-20T01:17:24.197Z,101809.09
2023-01-20T01:19:56.909Z,101796.47
2023-01-20T01:22:25.111Z,101813.97
2023-01-20T01:24:53.117Z,101805.00
2023-01-20T01:27:21.246Z,101803.22
2023-01-20T01:29:51.674Z,101806.69
2023-01-20T01:32:23.506Z,101804.31
2023-01-20T01:34:51.498Z,101810.38
2023-01-20T01:37:30.150Z,101807.84
2023-01-20T01:39:58.278Z,101816.69
2023-01-20T01:42:29.111Z,101815.06
2023-01-20T01:45:18.790Z,101813.22
2023-01-20T01:47:49.213Z,101809.97
2023-01-20T01:50:18.882Z,101823.78
2023-01-20T01:52:52.267Z,101828.09
2023-01-20T01:55:29.261Z,101818.69
2023-01-20T01:57:57.710Z,101828.25
2023-01-20T02:00:26.670Z,101823.50
2023-01-20T02:02:54.673Z,101840.59
2023-01-20T02:05:22.644Z,101841.44
2023-01-20T02:07:53.513Z,101834.50
2023-01-20T02:10:22.467Z,101840.59
2023-01-20T02:12:51.853Z,101841.44
2023-01-20T02:15:23.963Z,101845.84
2023-01-20T02:18:02.264Z,101844.19
2023-01-20T02:20:53.924Z,101840.09
2023-01-20T02:23:35.239Z,101839.59
2023-01-20T02:26:20.572Z,101859.16
2023-01-20T02:29:21.635Z,101851.38
2023-01-20T02:32:09.416Z,101861.28
2023-01-20T02:34:41.196Z,101865.75
2023-01-20T02:37:12.434Z,101862.25
2023-01-20T02:39:45.170Z,101845.91
2023-01-20T02:42:15.275Z,101836.19
2023-01-20T02:44:49.130Z,101865.09
2023-01-20T02:47:20.733Z,101855.47
2023-01-20T02:49:53.446Z,101864.25
2023-01-20T02:52:23.869Z,101854.91
2023-01-20T02:54:55.729Z,101862.69
2023-01-20T02:57:26.915Z,101867.94
2023-01-20T03:00:00.359Z,101868.94
2023-01-20T03:02:32.754Z,101872.47
2023-01-20T03:05:04.676Z,101870.63
2023-01-20T03:07:33.992Z,101874.03
2023-01-20T03:10:07.521Z,101876.50
2023-01-20T03:12:36.748Z,101866.94
2023-01-20T03:15:07.789Z,101871.97
2023-01-20T03:17:37.233Z,101871.88
2023-01-20T03:20:06.151Z,101870.13
2023-01-20T03:22:34.123Z,101880.41
2023-01-20T03:25:02.104Z,101851.50
2023-01-20T03:27:35.351Z,101883.94
2023-01-20T03:30:03.963Z,101881.63
2023-01-20T03:32:32.250Z,101886.13
2023-01-20T03:35:01.653Z,101890.47
2023-01-20T03:37:32.074Z,101882.81
2023-01-20T03:40:01.811Z,101884.44
2023-01-20T03:42:31.148Z,101888.75
2023-01-20T03:45:04.910Z,101876.00
2023-01-20T03:47:51.843Z,101889.31
2023-01-20T03:50:33.222Z,101898.09
2023-01-20T03:53:06.064Z,101892.84
2023-01-20T03:55:36.942Z,101895.56
2023-01-20T03:58:06.206Z,101874.16
2023-01-20T04:00:36.066Z,101879.28
2023-01-20T04:03:06.205Z,101881.97
2023-01-20T04:05:35.648Z,101902.44
2023-01-20T04:08:06.506Z,101893.72
2023-01-20T04:10:34.533Z,101893.66
2023-01-20T04:13:02.529Z,101893.03
2023-01-20T04:15:32.612Z,101860.63
2023-01-20T04:18:11.955Z,101886.91
2023-01-20T04:20:41.639Z,101889.47
2023-01-20T04:23:10.053Z,101907.53
2023-01-20T04:25:38.109Z,101892.84
2023-01-20T04:28:06.095Z,101902.31
2023-01-20T04:30:34.261Z,101899.69
2023-01-20T04:33:02.298Z,101897.97
2023-01-20T04:35:30.294Z,101893.03
2023-01-20T04:37:59.569Z,101911.22
2023-01-20T04:40:27.926Z,101890.13
2023-01-20T04:43:04.720Z,101913.06
2023-01-20T04:45:32.704Z,101920.16
2023-01-20T04:48:00.693Z,101921.00
2023-01-20T04:50:28.640Z,101917.88
2023-01-20T04:52:56.801Z,101923.06
2023-01-20T04:55:26.506Z,101921.34
2023-01-20T04:57:54.836Z,101918.94
2023-01-20T05:00:22.916Z,101932.25
2023-01-20T05:02:51.278Z,101935.00
2023-01-20T05:05:19.361Z,101922.19
2023-01-20T05:07:47.388Z,101940.16
2023-01-20T05:10:16.916Z,101938.22
2023-01-20T05:12:48.828Z,101937.94
2023-01-20T05:15:17.184Z,101935.09
2023-01-20T05:17:46.649Z,101925.03
2023-01-20T05:20:29.609Z,101933.53
2023-01-20T05:23:01.139Z,101928.56
2023-01-20T05:25:29.607Z,101938.28
2023-01-20T05:27:59.493Z,101921.25
2023-01-20T05:30:27.524Z,101946.13
2023-01-20T05:32:58.160Z,101942.59
2023-01-20T05:35:26.206Z,101925.56
2023-01-20T05:37:56.784Z,101923.75
2023-01-20T05:40:24.796Z,101945.16
2023-01-20T05:42:52.781Z,101949.41
2023-01-20T05:45:29.454Z,101953.53
2023-01-20T05:48:06.515Z,101953.53
2023-01-20T05:50:34.619Z,101925.78
2023-01-20T05:53:03.239Z,101948.25
2023-01-20T05:55:31.252Z,101950.53
2023-01-20T05:57:59.240Z,101952.94
2023-01-20T06:00:30.980Z,101952.94
2023-01-20T06:02:59.174Z,101956.50
2023-01-20T06:05:27.260Z,101950.47
2023-01-20T06:07:57.214Z,101952.34
2023-01-20T06:10:28.073Z,101949.09
2023-01-20T06:12:56.312Z,101960.31
2023-01-20T06:15:24.314Z,101954.56
2023-01-20T06:17:53.949Z,101936.88
2023-01-20T06:20:21.950Z,101976.41
2023-01-20T06:22:49.942Z,101975.69
2023-01-20T06:25:20.565Z,101947.84
2023-01-20T06:27:51.391Z,101952.84
2023-01-20T06:30:21.073Z,101973.56
2023-01-20T06:32:49.177Z,101967.50
2023-01-20T06:35:21.699Z,101990.97
2023-01-20T06:37:52.214Z,101990.19
2023-01-20T06:40:20.511Z,101975.75
2023-01-20T06:42:51.255Z,101998.91
2023-01-20T06:45:20.335Z,101977.47
2023-01-20T06:47:49.921Z,101996.97
2023-01-20T06:50:20.596Z,101987.69
2023-01-20T06:52:48.584Z,101975.00
2023-01-20T06:55:17.017Z,101992.00
2023-01-20T06:57:48.377Z,101987.09
2023-01-20T07:00:17.455Z,101997.44
2023-01-20T07:02:45.503Z,101996.59
2023-01-20T07:05:16.136Z,102001.84
2023-01-20T07:07:47.613Z,102005.75
2023-01-20T07:10:15.686Z,102010.88
2023-01-20T07:12:45.460Z,102021.44
2023-01-20T07:15:24.147Z,102028.41
2023-01-20T07:17:52.138Z,102026.59
2023-01-20T07:20:20.490Z,102031.66
2023-01-20T07:22:50.142Z,102025.66
2023-01-20T07:25:19.492Z,102035.09
2023-01-20T07:27:49.972Z,102029.16
2023-01-20T07:30:18.797Z,102022.19
2023-01-20T07:32:50.783Z,102025.06
2023-01-20T07:35:20.156Z,102028.66
2023-01-20T07:37:57.210Z,102025.97
2023-01-20T07:40:25.552Z,102026.84
2023-01-20T07:42:54.491Z,102037.44
2023-01-20T07:45:22.505Z,102021.56
2023-01-20T07:47:57.082Z,102047.91
2023-01-20T07:50:32.832Z,102047.03
2023-01-20T07:53:04.980Z,102048.75
2023-01-20T07:55:35.658Z,102041.81
2023-01-20T07:58:04.031Z,102045.03
2023-01-20T08:00:34.441Z,102051.19
2023-01-20T08:03:03.620Z,102053.75
2023-01-20T08:05:33.390Z,102064.97
2023-01-20T08:08:02.826Z,102072.81
2023-01-20T08:10:31.570Z,102049.34
2023-01-20T08:12:59.664Z,102075.53
2023-01-20T08:15:31.478Z,102054.56
2023-01-20T08:18:00.790Z,102079.22
2023-01-20T08:20:30.588Z,102082.84
2023-01-20T08:22:58.552Z,102093.22
2023-01-20T08:25:27.943Z,102088.09
2023-01-20T08:27:57.609Z,102063.25
2023-01-20T08:30:29.331Z,102085.63
2023-01-20T08:32:58.427Z,102076.31
2023-01-20T08:35:26.864Z,102096.50
2023-01-20T08:37:54.950Z,102089.56
2023-01-20T08:40:22.933Z,102077.50
2023-01-20T08:42:54.702Z,102102.09
2023-01-20T08:45:23.684Z,102103.53
2023-01-20T08:47:52.187Z,102084.22
2023-01-20T08:50:23.512Z,102111.34
2023-01-20T08:52:59.679Z,102113.06
2023-01-20T08:55:38.657Z,102113.91
2023-01-20T08:58:08.193Z,102127.56
2023-01-20T09:00:36.296Z,102112.81
2023-01-20T09:03:04.867Z,102114.41
2023-01-20T09:05:33.533Z,102103.78
2023-01-20T09:08:10.461Z,102121.75
2023-01-20T09:10:38.451Z,102137.28
2023-01-20T09:13:06.492Z,102132.19
2023-01-20T09:15:45.319Z,102104.03
2023-01-20T09:18:14.028Z,102129.88
2023-01-20T09:20:42.167Z,102130.84
2023-01-20T09:23:11.532Z,102116.34
2023-01-20T09:25:41.513Z,102138.63
2023-01-20T09:28:10.275Z,102140.91
2023-01-20T09:30:39.697Z,102140.63
2023-01-20T09:33:07.741Z,102130.84
2023-01-20T09:35:37.027Z,102122.94
2023-01-20T09:38:22.493Z,102130.53
2023-01-20T09:41:14.683Z,102134.69
2023-01-20T09:43:55.328Z,102139.72
2023-01-20T09:46:37.767Z,102145.56
2023-01-20T09:49:29.611Z,102143.53
2023-01-20T09:52:20.893Z,102147.84
2023-01-20T09:54:53.834Z,102148.28
2023-01-20T09:57:23.465Z,102143.69
2023-01-20T09:59:53.922Z,102156.38
2023-01-20T10:02:34.116Z,102151.59
2023-01-20T10:05:04.053Z,102153.88
2023-01-20T10:07:38.631Z,102162.84
2023-01-20T10:10:11.035Z,102150.34
2023-01-20T10:12:41.176Z,102163.06
2023-01-20T10:15:12.264Z,102166.56
2023-01-20T10:17:44.599Z,102163.00
2023-01-20T10:20:18.270Z,102162.72
2023-01-20T10:22:47.092Z,102154.06
2023-01-20T10:25:17.243Z,102158.03
2023-01-20T10:27:51.426Z,102157.06
2023-01-20T10:30:19.726Z,102164.97
2023-01-20T10:32:52.196Z,102181.88
2023-01-20T10:35:24.097Z,102168.53
2023-01-20T10:37:52.821Z,102182.72
2023-01-20T10:40:34.209Z,102171.75
2023-01-20T10:43:10.737Z,102151.16
2023-01-20T10:45:44.072Z,102188.63
2023-01-20T10:48:19.816Z,102182.81
2023-01-20T10:50:51.438Z,102182.38
2023-01-20T10:53:27.614Z,102169.47
2023-01-20T10:56:03.491Z,102182.00
2023-01-20T10:58:32.443Z,102186.88
2023-01-20T11:01:02.878Z,102182.94
2023-01-20T11:03:35.742Z,102185.00
2023-01-20T11:06:06.346Z,102178.88
2023-01-20T11:08:35.015Z,102193.03
2023-01-20T11:13:54.041Z,102182.13
2023-01-20T11:16:25.952Z,102182.72
2023-01-20T11:19:01.085Z,102163.22
2023-01-20T11:21:31.856Z,102191.09
2023-01-20T11:24:02.092Z,102200.22
2023-01-20T11:26:31.453Z,102189.38
2023-01-20T11:29:01.278Z,102188.44
2023-01-20T11:31:39.472Z,102187.25
2023-01-20T11:34:33.541Z,102189.03
2023-01-20T11:37:25.705Z,102183.19
2023-01-20T11:40:08.982Z,102160.91
2023-01-20T11:42:46.086Z,102182.72
2023-01-20T11:45:33.362Z,102184.16
2023-01-20T11:48:19.219Z,102174.69
2023-01-20T11:50:50.432Z,102191.38
2023-01-20T11:53:21.236Z,102187.72
2023-01-20T11:55:52.137Z,102182.78
2023-01-20T11:58:21.790Z,102167.22
2023-01-20T12:00:53.465Z,102174.34
2023-01-20T12:03:45.627Z,102184.75
2023-01-20T12:06:19.389Z,102187.97
2023-01-20T12:08:50.677Z,102175.56
2023-01-20T12:11:22.868Z,102193.81
2023-01-20T12:14:18.513Z,102183.88
2023-01-20T12:16:47.333Z,102193.03
2023-01-20T12:19:21.630Z,102175.00
2023-01-20T12:21:55.634Z,102193.53
2023-01-20T12:24:42.224Z,102194.72
2023-01-20T12:27:16.023Z,102190.00
2023-01-20T12:29:52.866Z,102189.00
2023-01-20T12:32:20.872Z,102181.09
2023-01-20T12:34:49.070Z,102150.31
2023-01-20T12:37:20.740Z,102186.69
2023-01-20T12:40:04.357Z,102181.69
2023-01-20T12:43:02.324Z,102187.44
2023-01-20T12:45:38.261Z,102186.16
2023-01-20T12:48:23.124Z,102195.41
2023-01-20T12:51:06.083Z,102161.72
2023-01-20T12:53:50.374Z,102190.63
2023-01-20T12:56:27.004Z,102186.03
2023-01-20T12:58:59.168Z,102180.66
2023-01-20T13:01:42.855Z,102190.84
2023-01-20T13:04:46.461Z,102173.78
2023-01-20T13:07:39.839Z,102193.59
2023-01-20T13:10:32.965Z,102201.53
2023-01-20T13:13:06.639Z,102187.19
2023-01-20T13:15:36.897Z,102177.75
2023-01-20T13:18:24.655Z,102191.03
2023-01-20T13:20:53.156Z,102188.03
2023-01-20T13:23:39.132Z,102162.63
2023-01-20T13:26:19.047Z,102179.34
2023-01-20T13:29:01.046Z,102174.13
2023-01-20T13:31:37.680Z,102181.22
2023-01-20T13:34:38.899Z,102188.09
2023-01-20T13:37:32.352Z,102188.88
2023-01-20T13:40:01.143Z,102190.91
2023-01-20T13:42:34.923Z,102186.66
2023-01-20T13:45:31.632Z,102193.69
2023-01-20T13:48:02.155Z,102171.69
2023-01-20T13:51:47.958Z,102197.59
2023-01-20T13:54:44.532Z,102200.59
2023-01-20T13:57:42.960Z,102194.13
2023-01-20T14:00:19.397Z,102170.88
2023-01-20T14:02:49.557Z,102182.31
2023-01-20T14:05:27.978Z,102192.59
2023-01-20T14:07:57.138Z,102187.06
2023-01-20T14:10:35.481Z,102202.00
2023-01-20T14:13:10.400Z,102201.31
2023-01-20T14:15:41.343Z,102196.25
2023-01-20T14:18:23.973Z,102182.56
2023-01-20T14:21:03.447Z,102195.19
2023-01-20T14:23:34.656Z,102187.66
2023-01-20T14:26:14.044Z,102217.56
2023-01-20T14:28:51.457Z,102185.00
2023-01-20T14:31:40.440Z,102210.66
2023-01-20T14:34:24.906Z,102212.13
2023-01-20T14:36:53.325Z,102205.97
2023-01-20T14:39:22.626Z,102178.13
2023-01-20T14:41:53.666Z,102202.88
2023-01-20T14:44:26.533Z,102216.56
2023-01-20T14:46:55.530Z,102220.91
2023-01-20T14:49:27.437Z,102223.16
2023-01-20T14:51:56.877Z,102208.59
2023-01-20T14:54:35.630Z,102236.69
2023-01-20T14:57:13.064Z,102241.03
2023-01-20T14:59:43.990Z,102244.34
2023-01-20T15:02:18.205Z,102240.84
2023-01-20T15:04:46.297Z,102247.16
2023-01-20T15:07:19.424Z,102234.84
2023-01-20T15:09:52.925Z,102234.09
2023-01-20T15:12:47.903Z,102232.78
2023-01-20T15:15:35.428Z,102257.06
2023-01-20T15:18:29.023Z,102233.47
2023-01-20T15:21:16.420Z,102264.72
2023-01-20T15:23:53.422Z,102247.72
2023-01-20T15:26:27.797Z,102253.88
2023-01-20T15:28:55.829Z,102257.59
2023-01-20T15:31:26.736Z,102248.50
2023-01-20T15:36:40.315Z,102270.91
2023-01-20T15:39:11.356Z,102266.63
2023-01-20T15:41:39.731Z,102267.50
2023-01-20T15:44:08.787Z,102242.84
2023-01-20T15:46:38.884Z,102277.44
2023-01-20T15:49:08.011Z,102248.44
2023-01-20T15:51:41.698Z,102278.47
2023-01-20T15:54:10.572Z,102277.63
2023-01-20T15:56:41.606Z,102281.97
2023-01-20T15:59:13.021Z,102298.78
2023-01-20T16:01:43.375Z,102298.88
2023-01-20T16:04:11.615Z,102298.22
2023-01-20T16:06:40.468Z,102285.19
2023-01-20T16:09:16.628Z,102305.84
2023-01-20T16:11:47.683Z,102305.38
2023-01-20T16:14:15.902Z,102319.47
2023-01-20T16:16:48.611Z,102324.38
2023-01-20T16:19:19.710Z,102327.84
2023-01-20T16:21:47.886Z,102318.56
2023-01-20T16:24:16.874Z,102316.69
2023-01-20T16:26:45.033Z,102320.06
2023-01-20T16:29:27.008Z,102315.88
2023-01-20T16:31:56.630Z,102318.88
2023-01-20T16:34:25.643Z,102328.41
2023-01-20T16:36:56.129Z,102329.38
2023-01-20T16:39:25.303Z,102329.72
2023-01-20T16:41:57.782Z,102310.69
2023-01-20T16:44:26.272Z,102316.81
2023-01-20T16:46:54.273Z,102328.09
2023-01-20T16:49:23.647Z,102340.78
2023-01-20T16:51:59.799Z,102347.59
2023-01-20T16:54:28.644Z,102327.50
2023-01-20T16:56:59.259Z,102347.63
2023-01-20T16:59:27.438Z,102353.41
2023-01-20T17:04:50.549Z,102338.56
2023-01-20T17:07:18.776Z,102367.53
2023-01-20T17:09:47.285Z,102365.56
2023-01-20T17:12:16.801Z,102360.75
2023-01-20T17:14:44.877Z,102341.69
2023-01-20T17:17:16.642Z,102388.28
2023-01-20T17:19:44.750Z,102373.16
2023-01-20T17:22:20.363Z,102392.22
2023-01-20T17:24:50.300Z,102378.75
2023-01-20T17:27:19.265Z,102392.59
2023-01-20T17:29:52.097Z,102392.28
2023-01-20T17:32:26.348Z,102403.69
2023-01-20T17:34:54.669Z,102406.56
2023-01-20T17:37:31.641Z,102403.38
2023-01-20T17:40:03.775Z,102388.41
2023-01-20T17:42:31.875Z,102387.13
2023-01-20T17:45:02.335Z,102408.69
2023-01-20T17:47:31.603Z,102419.28
2023-01-20T17:50:03.029Z,102425.63
2023-01-20T17:52:32.492Z,102428.44
2023-01-20T17:55:00.438Z,102425.19
2023-01-20T17:57:30.221Z,102420.34
2023-01-20T17:59:58.183Z,102426.56
2023-01-20T18:02:27.761Z,102438.00
2023-01-20T18:04:55.777Z,102435.50
2023-01-20T18:07:24.971Z,102439.28
2023-01-20T18:09:54.437Z,102449.16
2023-01-20T18:12:31.303Z,102456.31
2023-01-20T18:14:59.453Z,102454.78
2023-01-20T18:17:34.421Z,102460.94
2023-01-20T18:20:03.785Z,102458.59
2023-01-20T18:22:32.034Z,102452.88
2023-01-20T18:25:04.191Z,102474.50
2023-01-20T18:27:33.151Z,102475.63
2023-01-20T18:30:01.352Z,102476.69
2023-01-20T18:32:32.464Z,102476.63
2023-01-20T18:35:15.259Z,102483.59
2023-01-20T18:37:44.019Z,102486.34
2023-01-20T18:40:14.801Z,102496.94
2023-01-20T18:42:50.734Z,102503.19
2023-01-20T18:45:20.155Z,102501.63
2023-01-20T18:47:49.494Z,102491.75
2023-01-20T18:50:18.269Z,102521.97
2023-01-20T18:52:46.408Z,102529.16
2023-01-20T18:55:18.281Z,102522.28
2023-01-20T18:57:52.962Z,102528.56
2023-01-20T19:00:21.467Z,102530.50
2023-01-20T19:02:52.149Z,102532.47
2023-01-20T19:05:20.158Z,102524.78
2023-01-20T19:07:52.263Z,102534.44
2023-01-20T19:10:21.897Z,102533.53
2023-01-20T19:12:51.688Z,102544.69
2023-01-20T19:15:19.718Z,102549.97
2023-01-20T19:17:49.952Z,102554.63
2023-01-20T19:20:20.769Z,102562.56
2023-01-20T19:22:48.828Z,102562.66
2023-01-20T19:25:17.002Z,102561.09
2023-01-20T19:27:46.544Z,102573.44
2023-01-20T19:30:15.626Z,102565.13
2023-01-20T19:32:45.141Z,102578.88
2023-01-20T19:35:17.514Z,102572.09
2023-01-20T19:37:45.695Z,102595.66
2023-01-20T19:40:14.471Z,102593.19
2023-01-20T19:42:42.902Z,102591.50
2023-01-20T19:45:12.700Z,102600.31
2023-01-20T19:47:40.721Z,102595.06
2023-01-20T19:50:09.804Z,102595.06
2023-01-20T19:52:38.975Z,102602.03
2023-01-20T19:55:07.457Z,102593.38
2023-01-20T19:57:38.132Z,102614.13
2023-01-20T20:00:08.780Z,102615.84
2023-01-20T20:02:41.324Z,102600.19
2023-01-20T20:05:11.331Z,102614.13
2023-01-20T20:07:42.047Z,102622.94
2023-01-20T20:10:11.799Z,102629.09
2023-01-20T20:12:39.913Z,102627.69
2023-01-20T20:15:08.661Z,102620.28
2023-01-20T20:17:36.661Z,102638.47
2023-01-20T20:20:06.945Z,102638.59
2023-01-20T20:22:37.395Z,102652.66
2023-01-20T20:25:14.935Z,102641.22
2023-01-20T20:27:43.458Z,102646.81
2023-01-20T20:30:26.547Z,102650.97
2023-01-20T20:32:54.612Z,102643.22
2023-01-20T20:35:23.951Z,102647.63
2023-01-20T20:37:51.947Z,102663.47
2023-01-20T20:40:19.954Z,102642.13
2023-01-20T20:42:48.690Z,102661.31
2023-01-20T20:45:18.656Z,102671.91
2023-01-20T20:47:46.670Z,102678.25
2023-01-20T20:50:15.000Z,102673.19
2023-01-20T20:52:46.946Z,102670.97
2023-01-20T20:55:18.552Z,102669.22
2023-01-20T20:57:48.748Z,102684.91
2023-01-20T21:00:17.270Z,102686.72
2023-01-20T21:02:45.449Z,102685.97
2023-01-20T21:05:13.460Z,102686.09
2023-01-20T21:07:41.493Z,102702.63
2023-01-20T21:10:14.155Z,102696.53
2023-01-20T21:12:42.330Z,102707.94
2023-01-20T21:15:11.305Z,102703.75
2023-01-20T21:17:46.957Z,102714.00
2023-01-20T21:20:17.624Z,102718.22
2023-01-20T21:22:49.073Z,102716.50
2023-01-20T21:25:27.272Z,102720.22
2023-01-20T21:27:58.091Z,102731.66
2023-01-20T21:30:26.091Z,102711.94
2023-01-20T21:32:54.315Z,102727.53
2023-01-20T21:35:24.215Z,102730.81
2023-01-20T21:37:53.045Z,102717.13
2023-01-20T21:40:22.966Z,102709.31
2023-01-20T21:43:15.181Z,102740.00
2023-01-20T21:45:42.726Z,102757.09
2023-01-20T21:48:25.431Z,102764.03
2023-01-20T21:51:11.550Z,102762.09
2023-01-20T21:53:39.739Z,102769.88
2023-01-20T21:56:09.349Z,102769.75
2023-01-20T21:58:40.118Z,102749.81
2023-01-20T22:01:08.209Z,102764.41
2023-01-20T22:03:38.671Z,102771.59
2023-01-20T22:06:07.307Z,102739.81
2023-01-20T22:08:36.088Z,102739.25
2023-01-20T22:11:06.699Z,102747.19
2023-01-20T22:13:36.137Z,102762.94
2023-01-20T22:16:05.522Z,102767.38
2023-01-20T22:18:33.571Z,102759.72
2023-01-20T22:21:05.059Z,102750.34
2023-01-20T22:23:39.638Z,102760.88
2023-01-20T22:26:14.060Z,102755.84
2023-01-20T22:28:45.616Z,102747.50
2023-01-20T22:31:17.253Z,102757.13
2023-01-20T22:33:47.181Z,102758.25
2023-01-20T22:36:17.952Z,102776.47
2023-01-20T22:38:46.626Z,102753.41
2023-01-20T22:41:15.540Z,102775.06
2023-01-20T22:43:45.103Z,102782.97
2023-01-20T22:46:14.351Z,102771.84
2023-01-20T22:48:46.336Z,102787.38
2023-01-20T22:51:17.749Z,102790.13
2023-01-20T22:53:48.885Z,102766.81
2023-01-20T22:56:18.936Z,102786.97
2023-01-20T22:58:48.607Z,102792.97
2023-01-20T23:01:26.743Z,102804.31
2023-01-20T23:03:55.297Z,102808.72
2023-01-20T23:06:23.443Z,102799.13
2023-01-20T23:08:51.654Z,102793.34
2023-01-20T23:11:20.975Z,102784.69
2023-01-20T23:13:51.985Z,102811.44
2023-01-20T23:16:22.306Z,102812.41
2023-01-20T23:18:53.536Z,102761.84
2023-01-20T23:21:24.415Z,102800.78
2023-01-20T23:23:57.108Z,102809.63
2023-01-20T23:26:26.097Z,102827.63
2023-01-20T23:28:55.659Z,102802.19
2023-01-20T23:31:24.947Z,102840.00
2023-01-20T23:33:54.358Z,102810.91
2023-01-20T23:36:24.795Z,102846.16
2023-01-20T23:38:54.148Z,102842.78
2023-01-20T23:41:22.321Z,102850.75
2023-01-20T23:43:54.183Z,102813.06
2023-01-20T23:46:23.605Z,102849.19
2023-01-20T23:48:51.799Z,102826.13
2023-01-20T23:51:22.314Z,102841.69
2023-01-20T23:53:50.532Z,102835.56
2023-01-20T23:56:20.089Z,102862.25
2023-01-20T23:58:48.471Z,102849.31
